createdAt,value
2019-02-02T00:02:36.548Z,95.90
2019-02-02T00:05:32.324Z,96.70
2019-02-02T00:12:01.465Z,97.00
2019-02-02T00:18:42.062Z,96.90
2019-02-02T00:24:52.084Z,96.30
2019-02-02T00:27:50.785Z,95.70
2019-02-02T00:30:44.002Z,95.80
2019-02-02T00:33:42.697Z,97.10
2019-02-02T00:36:48.667Z,97.10
2019-02-02T00:39:31.772Z,97.80
2019-02-02T00:48:25.530Z,97.10
2019-02-02T00:51:18.366Z,96.80
2019-02-02T00:54:23.869Z,97.10
2019-02-02T00:57:18.332Z,95.30
2019-02-02T00:59:51.730Z,97.10
2019-02-02T01:02:33.574Z,97.90
2019-02-02T01:08:30.135Z,97.50
2019-02-02T01:11:25.031Z,97.50
2019-02-02T01:14:25.310Z,97.30
2019-02-02T01:17:19.656Z,97.40
2019-02-02T01:20:34.720Z,98.10
2019-02-02T01:23:30.007Z,99.30
2019-02-02T01:26:14.009Z,99.60
2019-02-02T01:29:33.027Z,98.80
2019-02-02T01:32:27.878Z,99.40
2019-02-02T01:35:09.574Z,99.90
2019-02-02T01:37:48.945Z,99.90
2019-02-02T01:40:52.610Z,98.80
2019-02-02T01:47:21.910Z,97.00
2019-02-02T01:50:02.025Z,95.70
2019-02-02T01:53:01.996Z,95.10
2019-02-02T01:56:34.469Z,95.70
2019-02-02T01:59:54.976Z,96.60
2019-02-02T02:10:14.495Z,94.00
2019-02-02T02:13:28.341Z,96.20
2019-02-02T02:16:08.910Z,97.60
2019-02-02T02:18:56.224Z,98.10
2019-02-02T02:22:06.281Z,97.80
2019-02-02T02:31:13.366Z,95.50
2019-02-02T02:33:46.420Z,95.90
2019-02-02T02:36:21.873Z,96.60
2019-02-02T02:39:22.295Z,97.40
2019-02-02T02:41:56.238Z,97.70
2019-02-02T02:44:53.305Z,98.30
2019-02-02T02:47:42.227Z,97.90
2019-02-02T02:50:31.906Z,96.90
2019-02-02T02:53:29.377Z,96.10
2019-02-02T02:56:15.770Z,95.40
2019-02-02T02:58:52.056Z,96.40
2019-02-02T03:04:22.784Z,96.90
2019-02-02T03:06:58.788Z,95.40
2019-02-02T03:09:39.672Z,96.60
2019-02-02T03:12:11.992Z,95.60
2019-02-02T03:15:04.524Z,96.50
2019-02-02T03:17:37.580Z,96.30
2019-02-02T03:20:14.345Z,96.40
2019-02-02T03:22:57.190Z,96.20
2019-02-02T03:25:39.074Z,95.60
2019-02-02T03:28:19.573Z,95.30
2019-02-02T03:30:58.838Z,95.30
2019-02-02T03:33:41.437Z,94.50
2019-02-02T03:36:21.344Z,94.80
2019-02-02T03:39:07.142Z,95.80
2019-02-02T03:42:02.852Z,97.10
2019-02-02T03:44:34.649Z,97.70
2019-02-02T03:47:12.195Z,98.10
2019-02-02T03:53:04.940Z,97.90
2019-02-02T03:55:37.519Z,98.60
2019-02-02T03:58:13.827Z,98.50
2019-02-02T04:00:44.839Z,96.90
2019-02-02T04:03:23.460Z,97.40
2019-02-02T04:05:56.874Z,97.80
2019-02-02T04:08:35.804Z,98.30
2019-02-02T04:11:14.589Z,98.60
2019-02-02T04:13:47.868Z,98.00
2019-02-02T04:16:40.116Z,96.40
2019-02-02T04:19:12.593Z,95.10
2019-02-02T04:21:44.145Z,96.00
2019-02-02T04:24:20.188Z,96.30
2019-02-02T04:26:52.986Z,97.00
2019-02-02T04:29:27.583Z,95.80
2019-02-02T04:32:15.414Z,95.20
2019-02-02T04:34:48.831Z,94.90
2019-02-02T04:37:20.897Z,94.90
2019-02-02T04:39:53.541Z,96.40
2019-02-02T04:42:30.637Z,97.60
2019-02-02T04:45:03.482Z,97.90
2019-02-02T04:47:39.735Z,97.50
2019-02-02T04:50:13.207Z,97.90
2019-02-02T04:52:49.342Z,98.10
2019-02-02T04:55:20.659Z,97.60
2019-02-02T04:57:58.413Z,94.30
2019-02-02T05:00:29.988Z,95.70
2019-02-02T05:03:04.371Z,96.20
2019-02-02T05:05:35.191Z,96.60
2019-02-02T05:08:07.346Z,96.80
2019-02-02T05:10:39.308Z,97.70
2019-02-02T05:13:10.758Z,97.30
2019-02-02T05:15:45.396Z,96.70
2019-02-02T05:18:21.474Z,97.00
2019-02-02T05:20:56.926Z,96.70
2019-02-02T05:23:32.875Z,96.20
2019-02-02T05:26:08.966Z,95.70
2019-02-02T05:28:50.824Z,95.60
2019-02-02T05:31:37.983Z,95.80
2019-02-02T05:34:22.675Z,96.10
2019-02-02T05:36:56.307Z,95.40
2019-02-02T05:39:27.472Z,95.20
2019-02-02T05:42:08.762Z,96.30
2019-02-02T05:45:02.141Z,95.90
2019-02-02T05:47:56.235Z,97.30
2019-02-02T05:50:33.679Z,97.90
2019-02-02T05:53:17.867Z,96.90
2019-02-02T05:56:21.066Z,97.90
2019-02-02T05:59:09.078Z,98.50
2019-02-02T06:01:54.771Z,98.60
2019-02-02T06:04:28.431Z,99.40
2019-02-02T06:07:01.637Z,98.00
2019-02-02T06:16:44.769Z,97.50
2019-02-02T06:19:41.799Z,97.80
2019-02-02T06:26:22.865Z,96.30
2019-02-02T06:36:18.696Z,96.40
2019-02-02T06:43:12.498Z,96.30
2019-02-02T06:46:15.710Z,96.40
2019-02-02T06:49:37.001Z,96.40
2019-02-02T06:56:02.381Z,93.40
2019-02-02T06:59:01.091Z,94.60
2019-02-02T07:01:58.131Z,95.40
2019-02-02T07:05:01.178Z,95.40
2019-02-02T07:07:43.221Z,95.40
2019-02-02T07:10:33.513Z,96.40
2019-02-02T07:14:02.304Z,96.40
2019-02-02T07:17:30.589Z,96.40
2019-02-02T07:20:59.383Z,96.60
2019-02-02T07:23:43.279Z,96.10
2019-02-02T07:26:42.218Z,95.40
2019-02-02T07:29:12.762Z,95.30
2019-02-02T07:31:44.114Z,94.40
2019-02-02T07:34:15.337Z,92.90
2019-02-02T07:36:45.516Z,93.30
2019-02-02T07:47:04.675Z,93.50
2019-02-02T07:49:48.180Z,92.90
2019-02-02T07:52:30.832Z,92.50
2019-02-02T07:55:10.347Z,91.40
2019-02-02T08:05:25.770Z,92.50
2019-02-02T08:07:55.942Z,92.70
2019-02-02T08:18:17.490Z,91.90
2019-02-02T08:31:49.805Z,90.80
2019-02-02T08:34:21.504Z,90.30
2019-02-02T08:37:33.361Z,89.60
2019-02-02T08:40:27.627Z,90.00
2019-02-02T08:43:57.152Z,87.60
2019-02-02T08:46:30.103Z,87.60
2019-02-02T08:49:04.150Z,83.00
2019-02-02T08:51:34.881Z,83.10
2019-02-02T08:54:06.003Z,86.40
2019-02-02T08:56:39.552Z,90.10
2019-02-02T08:59:12.443Z,90.10
2019-02-02T09:01:43.885Z,90.60
2019-02-02T09:04:17.493Z,90.00
2019-02-02T09:06:52.594Z,89.40
2019-02-02T09:09:24.346Z,86.50
2019-02-02T09:11:59.761Z,84.60
2019-02-02T09:14:30.975Z,86.10
2019-02-02T09:17:01.247Z,85.10
2019-02-02T09:19:33.165Z,86.40
2019-02-02T09:22:03.463Z,83.10
2019-02-02T09:24:35.472Z,83.50
2019-02-02T09:27:06.023Z,85.10
2019-02-02T09:29:37.811Z,86.10
2019-02-02T09:32:08.951Z,87.00
2019-02-02T09:34:41.862Z,86.70
2019-02-02T09:37:13.492Z,87.50
2019-02-02T09:39:44.579Z,87.10
2019-02-02T09:42:16.017Z,88.20
2019-02-02T09:44:59.539Z,88.80
2019-02-02T09:47:50.416Z,89.30
2019-02-02T09:50:22.316Z,90.10
2019-02-02T09:52:54.494Z,90.60
2019-02-02T09:55:25.211Z,91.20
2019-02-02T09:57:57.769Z,91.50
2019-02-02T10:00:31.157Z,91.60
2019-02-02T10:03:01.457Z,92.50
2019-02-02T10:05:32.937Z,93.30
2019-02-02T10:08:03.077Z,93.40
2019-02-02T10:10:36.028Z,93.40
2019-02-02T10:13:08.958Z,93.40
2019-02-02T10:15:39.141Z,93.40
2019-02-02T10:18:11.458Z,94.00
2019-02-02T10:20:41.602Z,93.30
2019-02-02T10:23:11.888Z,93.10
2019-02-02T10:25:42.148Z,93.00
2019-02-02T10:28:14.150Z,94.20
2019-02-02T10:30:46.456Z,93.80
2019-02-02T10:33:17.135Z,95.20
2019-02-02T10:35:47.482Z,95.80
2019-02-02T10:38:17.666Z,96.50
2019-02-02T10:40:47.786Z,96.10
2019-02-02T10:43:19.970Z,94.80
2019-02-02T10:45:50.875Z,93.20
2019-02-02T10:48:21.016Z,85.50
2019-02-02T10:50:51.203Z,79.00
2019-02-02T10:53:21.391Z,81.00
2019-02-02T10:55:51.569Z,75.20
2019-02-02T10:58:21.754Z,75.10
2019-02-02T11:00:51.923Z,77.40
2019-02-02T11:03:23.000Z,78.10
2019-02-02T11:05:54.584Z,64.10
2019-02-02T11:08:26.201Z,66.10
2019-02-02T11:10:56.497Z,66.90
2019-02-02T11:13:26.746Z,70.20
2019-02-02T11:15:58.673Z,72.10
2019-02-02T11:18:28.864Z,72.90
2019-02-02T11:20:59.057Z,67.50
2019-02-02T11:23:29.393Z,67.60
2019-02-02T11:25:59.577Z,65.20
2019-02-02T11:28:29.886Z,66.50
2019-02-02T11:31:02.580Z,68.70
2019-02-02T11:33:32.769Z,70.10
2019-02-02T11:36:03.054Z,71.90
2019-02-02T11:38:33.568Z,72.40
2019-02-02T11:41:03.745Z,75.00
2019-02-02T11:43:34.014Z,72.80
2019-02-02T11:46:06.533Z,75.40
2019-02-02T11:48:36.709Z,72.10
2019-02-02T11:51:08.082Z,65.40
2019-02-02T11:53:38.396Z,65.30
2019-02-02T11:56:08.588Z,66.50
2019-02-02T11:58:39.147Z,62.80
2019-02-02T12:01:09.258Z,65.50
2019-02-02T12:03:39.405Z,66.40
2019-02-02T12:06:10.473Z,64.40
2019-02-02T12:08:43.421Z,59.10
2019-02-02T12:11:13.566Z,58.60
2019-02-02T12:13:43.726Z,59.40
2019-02-02T12:16:18.469Z,59.70
2019-02-02T12:18:49.769Z,58.20
2019-02-02T12:21:20.046Z,56.10
2019-02-02T12:23:50.685Z,52.50
2019-02-02T12:26:22.027Z,51.10
2019-02-02T12:28:53.278Z,54.00
2019-02-02T12:31:24.687Z,51.80
2019-02-02T12:33:57.315Z,50.40
2019-02-02T12:36:27.460Z,49.10
2019-02-02T12:38:57.593Z,49.50
2019-02-02T12:41:27.869Z,50.10
2019-02-02T12:43:58.470Z,43.10
2019-02-02T12:46:29.308Z,41.40
2019-02-02T12:48:59.431Z,39.30
2019-02-02T12:51:29.591Z,42.50
2019-02-02T12:53:59.702Z,41.40
2019-02-02T12:56:30.020Z,37.60
2019-02-02T12:59:00.193Z,41.30
2019-02-02T13:01:34.261Z,38.90
2019-02-02T13:04:05.992Z,43.90
2019-02-02T13:06:38.634Z,43.20
2019-02-02T13:09:10.883Z,40.40
2019-02-02T13:11:44.401Z,39.50
2019-02-02T13:14:15.736Z,39.90
2019-02-02T13:16:50.215Z,38.80
2019-02-02T13:19:22.953Z,40.40
2019-02-02T13:21:55.159Z,40.90
2019-02-02T13:24:25.271Z,39.10
2019-02-02T13:26:55.504Z,40.40
2019-02-02T13:29:30.880Z,38.00
2019-02-02T13:32:01.982Z,36.20
2019-02-02T13:34:32.476Z,37.20
2019-02-02T13:37:05.515Z,37.50
2019-02-02T13:39:38.192Z,38.40
2019-02-02T13:42:09.433Z,38.60
2019-02-02T13:44:45.740Z,37.20
2019-02-02T13:47:19.182Z,38.90
2019-02-02T13:49:51.945Z,35.70
2019-02-02T13:52:24.317Z,37.70
2019-02-02T13:55:00.735Z,35.00
2019-02-02T13:57:32.882Z,32.70
2019-02-02T14:00:04.790Z,33.30
2019-02-02T14:02:36.863Z,33.80
2019-02-02T14:05:10.638Z,35.40
2019-02-02T14:07:41.215Z,38.50
2019-02-02T14:10:13.895Z,37.20
2019-02-02T14:12:44.069Z,38.70
2019-02-02T14:15:14.227Z,38.20
2019-02-02T14:17:55.771Z,37.20
2019-02-02T14:20:28.266Z,39.00
2019-02-02T14:22:58.421Z,39.70
2019-02-02T14:25:28.652Z,46.10
2019-02-02T14:28:00.183Z,51.00
2019-02-02T14:30:32.745Z,53.30
2019-02-02T14:33:14.148Z,54.30
2019-02-02T14:35:40.435Z,54.80
2019-02-02T14:38:14.275Z,55.90
2019-02-02T14:40:44.432Z,57.00
2019-02-02T14:43:14.947Z,56.50
2019-02-02T14:45:45.174Z,54.60
2019-02-02T14:48:17.976Z,56.40
2019-02-02T14:50:57.663Z,56.00
2019-02-02T14:53:30.536Z,55.90
2019-02-02T14:56:01.082Z,53.10
2019-02-02T14:58:33.779Z,55.00
2019-02-02T15:01:08.244Z,54.70
2019-02-02T15:03:40.497Z,55.60
2019-02-02T15:06:11.091Z,56.60
2019-02-02T15:08:41.310Z,54.30
2019-02-02T15:11:11.907Z,55.30
2019-02-02T15:13:49.479Z,56.90
2019-02-02T15:16:24.989Z,58.80
2019-02-02T15:18:55.196Z,57.70
2019-02-02T15:21:26.509Z,58.10
2019-02-02T15:23:59.152Z,58.20
2019-02-02T15:26:38.326Z,58.60
2019-02-02T15:29:10.229Z,58.70
2019-02-02T15:31:41.993Z,61.00
2019-02-02T15:34:12.153Z,62.90
2019-02-02T15:36:49.140Z,63.80
2019-02-02T15:39:19.334Z,63.60
2019-02-02T15:41:52.917Z,64.40
2019-02-02T15:44:22.745Z,68.10
2019-02-02T15:46:52.916Z,68.30
2019-02-02T15:49:23.092Z,67.50
2019-02-02T15:51:53.230Z,68.90
2019-02-02T15:54:23.434Z,67.90
2019-02-02T15:56:54.645Z,69.40
2019-02-02T15:59:38.670Z,68.70
2019-02-02T16:02:07.729Z,68.50
2019-02-02T16:04:39.985Z,70.30
2019-02-02T16:07:10.534Z,70.30
2019-02-02T16:09:42.447Z,71.60
2019-02-02T16:12:16.764Z,70.20
2019-02-02T16:14:51.141Z,71.60
2019-02-02T16:17:24.832Z,74.50
2019-02-02T16:19:57.191Z,75.40
2019-02-02T16:22:27.406Z,76.20
2019-02-02T16:25:00.279Z,76.10
2019-02-02T16:27:30.747Z,75.70
2019-02-02T16:30:00.968Z,77.10
2019-02-02T16:32:32.536Z,78.30
2019-02-02T16:35:04.704Z,78.60
2019-02-02T16:37:38.559Z,78.50
2019-02-02T16:40:42.366Z,78.30
2019-02-02T16:43:13.573Z,76.20
2019-02-02T16:45:43.919Z,78.50
2019-02-02T16:48:14.055Z,79.60
2019-02-02T16:50:44.273Z,80.80
2019-02-02T16:53:15.131Z,79.40
2019-02-02T16:55:45.287Z,80.10
2019-02-02T16:58:15.418Z,79.20
2019-02-02T17:00:45.622Z,80.60
2019-02-02T17:03:15.783Z,81.20
2019-02-02T17:05:45.975Z,80.20
2019-02-02T17:08:16.221Z,81.30
2019-02-02T17:10:47.295Z,80.60
2019-02-02T17:13:17.448Z,80.70
2019-02-02T17:15:47.626Z,79.00
2019-02-02T17:18:18.475Z,79.40
2019-02-02T17:20:48.645Z,78.30
2019-02-02T17:23:18.793Z,74.60
2019-02-02T17:25:50.914Z,75.60
2019-02-02T17:28:21.273Z,76.00
2019-02-02T17:30:51.485Z,76.60
2019-02-02T17:33:21.662Z,75.70
2019-02-02T17:35:52.781Z,76.40
2019-02-02T17:38:22.926Z,75.80
2019-02-02T17:40:53.063Z,75.90
2019-02-02T17:43:23.284Z,76.20
2019-02-02T17:45:53.811Z,76.00
2019-02-02T17:48:28.002Z,76.70
2019-02-02T17:51:00.266Z,75.70
2019-02-02T17:53:33.596Z,76.30
2019-02-02T17:59:21.566Z,76.00
2019-02-02T18:01:54.061Z,77.60
2019-02-02T18:07:54.497Z,75.90
2019-02-02T18:14:07.137Z,77.10
2019-02-02T18:23:20.015Z,76.90
2019-02-02T18:25:53.224Z,77.80
2019-02-02T18:28:25.575Z,74.90
2019-02-02T18:30:56.558Z,74.90
2019-02-02T18:33:27.203Z,75.00
2019-02-02T18:35:58.995Z,76.70
2019-02-02T18:38:31.595Z,77.00
2019-02-02T18:41:02.192Z,77.20
2019-02-02T18:43:38.514Z,78.80
2019-02-02T18:46:08.896Z,78.60
2019-02-02T18:48:40.967Z,79.60
2019-02-02T18:51:11.654Z,78.60
2019-02-02T18:53:42.975Z,79.60
2019-02-02T18:56:16.509Z,79.00
2019-02-02T18:58:47.096Z,78.80
2019-02-02T19:01:19.647Z,77.70
2019-02-02T19:03:50.007Z,78.10
2019-02-02T19:06:20.599Z,80.10
2019-02-02T19:08:50.882Z,79.90
2019-02-02T19:11:21.200Z,80.30
2019-02-02T19:13:54.778Z,82.10
2019-02-02T19:16:25.126Z,81.80
2019-02-02T19:18:55.526Z,79.70
2019-02-02T19:21:26.237Z,80.30
2019-02-02T19:23:58.759Z,81.70
2019-02-02T19:26:29.053Z,79.40
2019-02-02T19:28:59.304Z,80.30
2019-02-02T19:31:30.025Z,81.00
2019-02-02T19:34:00.448Z,78.30
2019-02-02T19:36:30.804Z,80.30
2019-02-02T19:39:02.946Z,80.70
2019-02-02T19:41:34.384Z,80.10
2019-02-02T19:44:06.116Z,79.40
2019-02-02T19:46:36.380Z,78.50
2019-02-02T19:49:06.603Z,78.50
2019-02-02T19:51:39.514Z,77.00
2019-02-02T19:54:11.092Z,73.50
2019-02-02T19:56:41.399Z,73.10
2019-02-02T19:59:13.101Z,76.00
2019-02-02T20:01:45.935Z,76.80
2019-02-02T20:04:17.651Z,76.60
2019-02-02T20:06:48.780Z,78.00
2019-02-02T20:09:19.158Z,75.80
2019-02-02T20:11:55.673Z,77.70
2019-02-02T20:14:27.482Z,77.50
2019-02-02T20:16:59.392Z,74.30
2019-02-02T20:19:32.862Z,77.00
2019-02-02T20:22:04.588Z,80.10
2019-02-02T20:24:44.147Z,77.80
2019-02-02T20:27:15.495Z,81.40
2019-02-02T20:29:52.005Z,85.40
2019-02-02T20:32:25.889Z,88.70
2019-02-02T20:34:59.121Z,89.00
2019-02-02T20:37:30.948Z,90.70
2019-02-02T20:40:01.201Z,91.20
2019-02-02T20:42:31.737Z,90.30
2019-02-02T20:45:03.158Z,90.20
2019-02-02T20:47:35.454Z,90.30
2019-02-02T20:50:10.227Z,88.70
2019-02-02T20:52:47.674Z,89.70
2019-02-02T20:55:20.028Z,90.20
2019-02-02T20:57:52.845Z,85.00
2019-02-02T21:00:26.590Z,81.10
2019-02-02T21:03:01.602Z,83.50
2019-02-02T21:06:40.170Z,85.30
2019-02-02T21:09:12.704Z,84.50
2019-02-02T21:11:42.892Z,85.80
2019-02-02T21:14:31.984Z,87.90
